TimeEST,TemperatureF,Dew PointF,Humidity,Sea Level PressureIn,VisibilityMPH,Wind Direction,Wind SpeedMPH,Gust SpeedMPH,PrecipitationIn,Events,Conditions,WindDirDegrees,DateUTC
12:15 AM,19.4,3.2,49,29.89,10.0,West,8.1,-,N/A,,Clear,280,2013-01-02 05:15:00
12:35 AM,17.6,3.2,53,29.90,10.0,West,6.9,-,N/A,,Clear,280,2013-01-02 05:35:00
12:55 AM,17.6,3.2,53,29.89,10.0,WNW,5.8,-,N/A,,Clear,290,2013-01-02 05:55:00
1:15 AM,17.6,3.2,53,29.90,10.0,WNW,8.1,-,N/A,,Clear,290,2013-01-02 06:15:00
1:35 AM,17.6,1.4,49,29.90,10.0,WNW,5.8,-,N/A,,Clear,290,2013-01-02 06:35:00
1:55 AM,17.6,1.4,49,29.91,10.0,WNW,5.8,-,N/A,,Clear,290,2013-01-02 06:55:00
2:15 AM,15.8,1.4,53,29.92,10.0,WNW,8.1,-,N/A,,Clear,290,2013-01-02 07:15:00
2:35 AM,15.8,1.4,53,29.92,10.0,West,6.9,-,N/A,,Clear,280,2013-01-02 07:35:00
2:55 AM,15.8,1.4,53,29.92,10.0,WNW,6.9,-,N/A,,Clear,290,2013-01-02 07:55:00
3:15 AM,15.8,1.4,53,29.92,10.0,WNW,9.2,-,N/A,,Clear,290,2013-01-02 08:15:00
4:55 AM,12.2,3.2,67,29.90,10.0,WSW,4.6,-,N/A,,Clear,250,2013-01-02 09:55:00
5:15 AM,12.2,3.2,67,29.91,10.0,West,4.6,-,N/A,,Clear,260,2013-01-02 10:15:00
5:35 AM,10.4,3.2,73,29.91,10.0,West,5.8,-,N/A,,Clear,260,2013-01-02 10:35:00
6:15 AM,12.2,5.0,73,29.91,10.0,West,6.9,-,N/A,,Clear,270,2013-01-02 11:15:00
6:35 AM,12.2,3.2,67,29.92,10.0,West,6.9,-,N/A,,Clear,260,2013-01-02 11:35:00
6:55 AM,12.2,5.0,73,29.91,10.0,West,5.8,-,N/A,,Clear,260,2013-01-02 11:55:00
7:35 AM,14.0,5.0,67,29.91,10.0,West,9.2,-,N/A,,Clear,260,2013-01-02 12:35:00
7:55 AM,14.0,5.0,67,29.91,10.0,West,6.9,-,N/A,,Clear,260,2013-01-02 12:55:00
8:15 AM,15.8,5.0,62,29.91,10.0,West,8.1,-,N/A,,Clear,270,2013-01-02 13:15:00
9:15 AM,19.4,6.8,58,29.92,10.0,West,8.1,-,N/A,,Clear,260,2013-01-02 14:15:00
9:35 AM,21.2,6.8,54,29.93,10.0,West,10.4,-,N/A,,Clear,280,2013-01-02 14:35:00
9:55 AM,23.0,8.6,54,29.93,10.0,West,11.5,18.4,N/A,,Clear,280,2013-01-02 14:55:00
10:15 AM,24.8,8.6,50,29.93,10.0,West,11.5,17.3,N/A,,Clear,270,2013-01-02 15:15:00
10:35 AM,24.8,8.6,50,29.93,10.0,West,12.7,19.6,N/A,,Clear,280,2013-01-02 15:35:00
10:55 AM,24.8,8.6,50,29.93,10.0,West,13.8,26.5,N/A,,Clear,270,2013-01-02 15:55:00
12:15 PM,26.6,10.4,51,29.90,10.0,WNW,9.2,-,N/A,,Partly Cloudy,290,2013-01-02 17:15:00
12:35 PM,28.4,10.4,47,29.89,10.0,West,13.8,20.7,N/A,,Partly Cloudy,270,2013-01-02 17:35:00
1:15 PM,28.4,10.4,47,29.88,10.0,WNW,10.4,24.2,N/A,,Clear,290,2013-01-02 18:15:00
1:55 PM,28.4,10.4,47,29.89,10.0,NW,15.0,21.9,N/A,,Mostly Cloudy,310,2013-01-02 18:55:00
2:15 PM,28.4,10.4,47,29.90,10.0,WNW,17.3,23.0,N/A,,Overcast,290,2013-01-02 19:15:00
2:35 PM,28.4,10.4,47,29.90,10.0,WNW,10.4,19.6,N/A,,Overcast,300,2013-01-02 19:35:00
2:55 PM,28.4,10.4,47,29.92,10.0,WNW,13.8,19.6,N/A,,Mostly Cloudy,300,2013-01-02 19:55:00
3:15 PM,28.4,10.4,47,29.93,10.0,WNW,9.2,20.7,N/A,,Mostly Cloudy,290,2013-01-02 20:15:00
3:35 PM,26.6,10.4,51,29.94,10.0,WNW,12.7,23.0,N/A,,Scattered Clouds,290,2013-01-02 20:35:00
3:55 PM,26.6,10.4,51,29.94,10.0,WNW,6.9,-,N/A,,Mostly Cloudy,290,2013-01-02 20:55:00
4:15 PM,26.6,10.4,51,29.95,10.0,WNW,12.7,19.6,N/A,,Mostly Cloudy,290,2013-01-02 21:15:00
4:35 PM,26.6,8.6,47,29.96,10.0,WNW,10.4,19.6,N/A,,Partly Cloudy,300,2013-01-02 21:35:00
4:55 PM,26.6,8.6,47,29.97,10.0,NW,10.4,18.4,N/A,,Clear,310,2013-01-02 21:55:00
5:35 PM,24.8,6.8,46,29.98,10.0,NW,12.7,-,N/A,,Clear,320,2013-01-02 22:35:00
5:55 PM,24.8,6.8,46,29.99,10.0,NW,8.1,-,N/A,,Clear,310,2013-01-02 22:55:00
6:15 PM,23.0,6.8,50,30.00,10.0,NW,5.8,-,N/A,,Clear,310,2013-01-02 23:15:00
6:35 PM,23.0,6.8,50,29.99,10.0,WNW,8.1,-,N/A,,Clear,300,2013-01-02 23:35:00
6:55 PM,21.2,6.8,54,30.00,10.0,WNW,6.9,-,N/A,,Clear,300,2013-01-02 23:55:00
7:15 PM,21.2,6.8,54,30.01,10.0,WNW,4.6,-,N/A,,Clear,300,2013-01-03 00:15:00
7:35 PM,19.4,6.8,58,30.02,10.0,West,4.6,-,N/A,,Clear,270,2013-01-03 00:35:00
8:15 PM,21.2,8.6,58,30.02,10.0,NW,6.9,-,N/A,,Clear,310,2013-01-03 01:15:00
8:35 PM,21.2,8.6,58,30.02,10.0,NW,4.6,-,N/A,,Clear,320,2013-01-03 01:35:00
8:55 PM,17.6,6.8,63,30.03,10.0,North,5.8,-,N/A,,Clear,10,2013-01-03 01:55:00
9:15 PM,19.4,6.8,58,30.03,10.0,NNW,8.1,-,N/A,,Clear,340,2013-01-03 02:15:00
9:35 PM,17.6,6.8,63,30.04,10.0,NNW,10.4,-,N/A,,Clear,340,2013-01-03 02:35:00
9:55 PM,17.6,3.2,53,30.04,10.0,NW,11.5,17.3,N/A,,Clear,320,2013-01-03 02:55:00
10:15 PM,17.6,3.2,53,30.05,10.0,NNW,8.1,-,N/A,,Clear,340,2013-01-03 03:15:00
10:55 PM,15.8,1.4,53,30.05,10.0,NW,9.2,-,N/A,,Clear,320,2013-01-03 03:55:00
11:15 PM,15.8,1.4,53,30.06,10.0,NNW,8.1,-,N/A,,Clear,330,2013-01-03 04:15:00
11:35 PM,15.8,1.4,53,30.06,10.0,NW,8.1,-,N/A,,Clear,310,2013-01-03 04:35:00
11:55 PM,14.0,1.4,57,30.07,10.0,NW,8.1,-,N/A,,Clear,310,2013-01-03 04:55:00